createdAt,value
2019-02-10T00:01:10.109Z,100133.59
2019-02-10T00:03:40.964Z,100130.60
2019-02-10T00:06:10.555Z,100135.16
2019-02-10T00:08:39.723Z,100132.97
2019-02-10T00:11:08.923Z,100117.52
2019-02-10T00:13:38.116Z,100119.78
2019-02-10T00:16:10.467Z,100101.51
2019-02-10T00:18:39.656Z,100099.22
2019-02-10T00:21:08.823Z,100099.22
2019-02-10T00:23:37.991Z,100091.20
2019-02-10T00:26:07.213Z,100084.39
2019-02-10T00:28:36.400Z,100076.38
2019-02-10T00:31:05.572Z,100067.05
2019-02-10T00:33:34.773Z,100060.67
2019-02-10T00:36:04.018Z,100054.88
2019-02-10T00:38:33.200Z,100048.59
2019-02-10T00:41:02.394Z,100037.91
2019-02-10T00:43:31.567Z,100030.76
2019-02-10T00:46:00.759Z,100025.69
2019-02-10T00:48:29.943Z,100014.16
2019-02-10T00:50:59.213Z,100008.91
2019-02-10T00:53:28.388Z,100000.13
2019-02-10T00:55:57.574Z,99998.31
2019-02-10T00:58:28.278Z,99993.09
2019-02-10T01:00:57.455Z,99983.84
2019-02-10T01:03:26.708Z,99979.75
2019-02-10T01:05:55.905Z,99979.63
2019-02-10T01:08:25.536Z,99974.38
2019-02-10T01:10:54.723Z,99972.72
2019-02-10T01:13:23.982Z,99971.62
2019-02-10T01:15:53.147Z,99964.17
2019-02-10T01:18:22.327Z,99958.92
2019-02-10T01:20:51.535Z,99961.51
2019-02-10T01:23:20.716Z,99945.66
2019-02-10T01:25:49.907Z,99950.55
2019-02-10T01:28:19.140Z,99943.80
2019-02-10T01:30:48.315Z,99932.11
2019-02-10T01:33:17.523Z,99926.62
2019-02-10T01:35:46.694Z,99916.43
2019-02-10T01:38:15.874Z,99915.55
2019-02-10T01:40:45.082Z,99896.50
2019-02-10T01:43:14.273Z,99893.84
2019-02-10T01:45:43.421Z,99888.10
2019-02-10T01:48:13.618Z,99875.81
2019-02-10T01:50:42.795Z,99864.17
2019-02-10T01:53:11.976Z,99861.51
2019-02-10T01:55:41.151Z,99858.16
2019-02-10T01:58:10.334Z,99846.63
2019-02-10T02:00:39.564Z,99837.94
2019-02-10T02:03:08.764Z,99826.59
2019-02-10T02:05:37.935Z,99815.15
2019-02-10T02:08:07.108Z,99808.36
2019-02-10T02:10:36.298Z,99792.07
2019-02-10T02:13:05.477Z,99783.51
2019-02-10T02:15:34.653Z,99779.59
2019-02-10T02:18:03.859Z,99763.27
2019-02-10T02:20:33.018Z,99753.09
2019-02-10T02:23:02.193Z,99745.66
2019-02-10T02:25:31.391Z,99741.66
2019-02-10T02:28:00.578Z,99721.75
2019-02-10T02:30:29.752Z,99716.50
2019-02-10T02:32:58.960Z,99706.03
2019-02-10T02:35:28.138Z,99702.77
2019-02-10T02:37:57.308Z,99695.53
2019-02-10T02:40:26.502Z,99683.25
2019-02-10T02:42:55.664Z,99681.44
2019-02-10T02:45:24.838Z,99671.34
2019-02-10T02:47:54.020Z,99657.02
2019-02-10T02:50:23.183Z,99643.89
2019-02-10T02:52:52.410Z,99634.52
2019-02-10T02:55:21.597Z,99625.36
2019-02-10T02:57:50.760Z,99610.98
2019-02-10T03:00:19.945Z,99603.08
2019-02-10T03:02:49.195Z,99588.30
2019-02-10T03:05:18.359Z,99584.19
2019-02-10T03:07:47.523Z,99571.97
2019-02-10T03:10:16.696Z,99563.61
2019-02-10T03:12:45.873Z,99552.39
2019-02-10T03:15:15.118Z,99547.23
2019-02-10T03:17:44.282Z,99524.39
2019-02-10T03:20:13.435Z,99516.69
2019-02-10T03:22:42.625Z,99504.30
2019-02-10T03:25:11.832Z,99488.41
2019-02-10T03:27:41.003Z,99482.80
2019-02-10T03:30:11.577Z,99458.92
2019-02-10T03:32:41.144Z,99441.98
2019-02-10T03:35:10.379Z,99429.77
2019-02-10T03:37:39.623Z,99422.58
2019-02-10T03:40:10.248Z,99408.11
2019-02-10T03:42:39.422Z,99389.48
2019-02-10T03:45:09.643Z,99379.40
2019-02-10T03:47:38.849Z,99365.52
2019-02-10T03:50:09.745Z,99359.03
2019-02-10T03:52:38.917Z,99349.89
2019-02-10T03:55:12.342Z,99347.34
2019-02-10T03:57:41.499Z,99338.97
2019-02-10T04:00:13.879Z,99328.61
2019-02-10T04:02:43.075Z,99323.63
2019-02-10T04:05:12.248Z,99318.14
2019-02-10T04:07:41.417Z,99309.39
2019-02-10T04:10:11.073Z,99299.09
2019-02-10T04:12:40.420Z,99295.32
2019-02-10T04:15:10.596Z,99283.26
2019-02-10T04:17:39.692Z,99273.72
2019-02-10T04:20:09.636Z,99264.52
2019-02-10T04:22:38.816Z,99247.51
2019-02-10T04:25:08.150Z,99242.47
2019-02-10T04:27:37.329Z,99230.87
2019-02-10T04:30:09.584Z,99216.23
2019-02-10T04:32:38.825Z,99210.33
2019-02-10T04:35:07.996Z,99194.84
2019-02-10T04:37:45.621Z,99192.10
2019-02-10T04:40:08.349Z,99182.57
2019-02-10T04:42:37.514Z,99170.42
2019-02-10T04:45:06.819Z,99158.09
2019-02-10T04:47:36.017Z,99147.89
2019-02-10T04:50:06.340Z,99137.83
2019-02-10T04:52:35.540Z,99122.53
2019-02-10T04:55:05.862Z,99112.86
2019-02-10T04:57:35.036Z,99093.66
2019-02-10T05:00:06.423Z,99084.80
2019-02-10T05:02:35.589Z,99076.95
2019-02-10T05:05:05.509Z,99065.24
2019-02-10T05:07:34.726Z,99049.28
2019-02-10T05:10:03.887Z,99036.45
2019-02-10T05:12:33.057Z,99026.75
2019-02-10T05:15:02.255Z,99016.29
2019-02-10T05:17:31.441Z,99006.80
2019-02-10T05:20:00.620Z,99000.14
2019-02-10T05:22:29.809Z,98985.31
2019-02-10T05:24:58.926Z,98980.58
2019-02-10T05:27:28.106Z,98969.05
2019-02-10T05:29:57.329Z,98963.55
2019-02-10T05:32:26.498Z,98946.73
2019-02-10T05:34:55.680Z,98944.16
2019-02-10T05:37:24.936Z,98932.27
2019-02-10T05:39:54.107Z,98932.08
2019-02-10T05:42:23.359Z,98917.05
2019-02-10T05:44:52.558Z,98907.45
2019-02-10T05:47:21.742Z,98903.72
2019-02-10T05:49:50.839Z,98884.12
2019-02-10T05:52:20.038Z,98878.80
2019-02-10T05:54:49.137Z,98868.53
2019-02-10T05:57:18.324Z,98865.72
2019-02-10T05:59:47.511Z,98852.67
2019-02-10T06:02:21.242Z,98839.27
2019-02-10T06:04:50.416Z,98843.12
2019-02-10T06:07:19.634Z,98834.84
2019-02-10T06:09:48.808Z,98828.73
2019-02-10T06:12:17.983Z,98827.56
2019-02-10T06:14:47.264Z,98812.37
2019-02-10T06:17:16.435Z,98800.89
2019-02-10T06:19:45.653Z,98799.27
2019-02-10T06:22:14.864Z,98789.25
2019-02-10T06:24:44.055Z,98776.94
2019-02-10T06:27:13.244Z,98773.37
2019-02-10T06:29:42.500Z,98764.94
2019-02-10T06:32:11.679Z,98747.02
2019-02-10T06:34:40.856Z,98749.64
2019-02-10T06:37:10.076Z,98747.08
2019-02-10T06:39:39.351Z,98725.25
2019-02-10T06:42:08.520Z,98725.25
2019-02-10T06:44:37.737Z,98717.09
2019-02-10T06:47:06.916Z,98709.66
2019-02-10T06:49:36.103Z,98701.67
2019-02-10T06:52:05.308Z,98676.25
2019-02-10T06:54:34.571Z,98660.83
2019-02-10T06:57:03.823Z,98660.83
2019-02-10T06:59:40.250Z,98644.59
2019-02-10T07:02:11.072Z,98652.98
2019-02-10T07:04:40.253Z,98658.94
2019-02-10T07:07:09.461Z,98658.94
2019-02-10T07:09:38.566Z,98665.84
2019-02-10T07:12:27.207Z,98665.84
2019-02-10T07:14:59.427Z,98665.62
2019-02-10T07:17:31.025Z,98662.84
2019-02-10T07:20:37.599Z,98657.50
2019-02-10T07:23:38.015Z,98651.55
2019-02-10T07:26:09.799Z,98651.55
2019-02-10T07:28:40.167Z,98661.13
2019-02-10T07:31:09.408Z,98671.91
2019-02-10T07:33:44.242Z,98671.91
2019-02-10T07:36:31.072Z,98691.70
2019-02-10T07:39:12.064Z,98695.06
2019-02-10T07:41:46.802Z,98714.45
2019-02-10T07:44:19.054Z,98714.45
2019-02-10T07:47:06.336Z,98730.45
2019-02-10T07:50:14.257Z,98694.19
2019-02-10T07:53:07.615Z,98691.55
2019-02-10T07:55:39.862Z,98705.89
2019-02-10T07:58:14.932Z,98701.50
2019-02-10T08:00:49.969Z,98706.41
2019-02-10T08:03:27.874Z,98706.41
2019-02-10T08:06:00.401Z,98697.20
2019-02-10T08:08:49.571Z,98691.27
2019-02-10T08:11:24.483Z,98694.20
2019-02-10T08:14:14.524Z,98694.20
2019-02-10T08:16:52.399Z,98698.14
2019-02-10T08:19:42.432Z,98699.03
2019-02-10T08:22:17.250Z,98688.47
2019-02-10T08:24:58.036Z,98676.09
2019-02-10T08:27:32.858Z,98675.98
2019-02-10T08:30:24.250Z,98664.58
2019-02-10T08:33:14.415Z,98668.34
2019-02-10T08:36:01.554Z,98663.95
2019-02-10T08:38:39.881Z,98661.78
2019-02-10T08:41:23.562Z,98661.66
2019-02-10T08:44:01.570Z,98660.80
2019-02-10T08:46:33.801Z,98641.46
2019-02-10T08:49:14.953Z,98674.50
2019-02-10T08:52:01.766Z,98688.33
2019-02-10T08:54:31.049Z,98697.73
2019-02-10T08:57:00.286Z,98713.41
2019-02-10T08:59:29.489Z,98712.34
2019-02-10T09:01:58.752Z,98700.69
2019-02-10T09:04:27.941Z,98681.18
2019-02-10T09:06:57.127Z,98678.86
2019-02-10T09:09:26.323Z,98692.47
2019-02-10T09:11:55.510Z,98699.63
2019-02-10T09:14:24.686Z,98699.63
2019-02-10T09:16:53.895Z,98684.07
2019-02-10T09:19:23.067Z,98684.07
2019-02-10T09:21:52.245Z,98685.31
2019-02-10T09:24:21.447Z,98693.91
2019-02-10T09:26:50.625Z,98714.78
2019-02-10T09:29:19.795Z,98714.78
2019-02-10T09:31:49.015Z,98726.20
2019-02-10T09:34:18.006Z,98726.20
2019-02-10T09:36:47.192Z,98738.58
2019-02-10T09:39:16.414Z,98739.53
2019-02-10T09:41:45.619Z,98723.87
2019-02-10T09:44:14.936Z,98706.41
2019-02-10T09:46:44.352Z,98706.59
2019-02-10T09:49:13.736Z,98703.57
2019-02-10T09:51:43.007Z,98703.98
2019-02-10T09:54:15.630Z,98690.11
2019-02-10T09:56:46.740Z,98692.64
2019-02-10T09:59:15.914Z,98717.58
2019-02-10T10:01:46.950Z,98733.27
2019-02-10T10:04:16.130Z,98736.10
2019-02-10T10:06:45.315Z,98743.15
2019-02-10T10:09:19.527Z,98763.42
2019-02-10T10:11:45.409Z,98771.88
2019-02-10T10:14:14.621Z,98780.26
2019-02-10T10:16:43.858Z,98782.99
2019-02-10T10:19:13.224Z,98782.99
2019-02-10T10:21:42.417Z,98780.81
2019-02-10T10:24:11.633Z,98795.12
2019-02-10T10:26:40.850Z,98798.67
2019-02-10T10:29:10.017Z,98800.21
2019-02-10T10:31:39.239Z,98800.66
2019-02-10T10:34:08.426Z,98810.93
2019-02-10T10:36:37.635Z,98809.08
2019-02-10T10:39:06.882Z,98815.58
2019-02-10T10:41:36.078Z,98811.36
2019-02-10T10:44:06.232Z,98829.78
2019-02-10T10:46:38.801Z,98836.20
2019-02-10T10:49:08.053Z,98844.20
2019-02-10T10:51:37.195Z,98836.80
2019-02-10T10:54:06.386Z,98834.06
2019-02-10T10:56:35.566Z,98831.03
2019-02-10T10:59:04.736Z,98820.45
2019-02-10T11:01:33.995Z,98823.41
2019-02-10T11:04:03.152Z,98811.02
2019-02-10T11:06:33.985Z,98817.23
2019-02-10T11:09:04.939Z,98827.33
2019-02-10T11:11:34.177Z,98829.84
2019-02-10T11:14:03.416Z,98827.18
2019-02-10T11:16:32.636Z,98827.81
2019-02-10T11:19:01.776Z,98836.70
2019-02-10T11:21:30.950Z,98841.04
2019-02-10T11:24:00.182Z,98838.52
2019-02-10T11:26:30.240Z,98837.14
2019-02-10T11:29:00.706Z,98825.89
2019-02-10T11:31:29.925Z,98829.27
2019-02-10T11:33:59.093Z,98835.30
2019-02-10T11:36:28.268Z,98840.42
2019-02-10T11:38:57.477Z,98835.09
2019-02-10T11:41:26.652Z,98839.00
2019-02-10T11:43:55.829Z,98835.81
2019-02-10T11:46:24.924Z,98829.31
2019-02-10T11:48:54.090Z,98825.72
2019-02-10T11:51:23.254Z,98831.92
2019-02-10T11:53:58.243Z,98832.24
2019-02-10T11:56:28.334Z,98840.59
2019-02-10T11:58:57.522Z,98833.77
2019-02-10T12:01:26.871Z,98837.60
2019-02-10T12:03:56.038Z,98843.01
2019-02-10T12:06:25.416Z,98836.98
2019-02-10T12:08:54.622Z,98841.89
2019-02-10T12:11:23.835Z,98851.51
2019-02-10T12:13:53.012Z,98851.51
2019-02-10T12:16:22.204Z,98850.55
2019-02-10T12:18:51.378Z,98850.55
2019-02-10T12:21:20.558Z,98844.25
2019-02-10T12:23:49.738Z,98845.81
2019-02-10T12:26:18.902Z,98839.07
2019-02-10T12:28:48.117Z,98846.91
2019-02-10T12:31:17.302Z,98836.41
2019-02-10T12:33:46.476Z,98836.41
2019-02-10T12:36:15.647Z,98842.09
2019-02-10T12:38:44.836Z,98842.09
2019-02-10T12:41:14.439Z,98839.64
2019-02-10T12:43:43.662Z,98836.30
2019-02-10T12:46:12.836Z,98836.30
2019-02-10T12:48:42.031Z,98835.72
2019-02-10T12:51:11.289Z,98840.05
2019-02-10T12:53:40.500Z,98835.28
2019-02-10T12:56:09.693Z,98838.09
2019-02-10T12:58:38.886Z,98838.09
2019-02-10T13:01:08.099Z,98839.84
2019-02-10T13:03:37.243Z,98836.34
2019-02-10T13:06:06.431Z,98836.34
2019-02-10T13:08:35.627Z,98826.77
2019-02-10T13:11:04.885Z,98830.06
2019-02-10T13:13:34.061Z,98836.63
2019-02-10T13:16:03.227Z,98843.89
2019-02-10T13:18:32.422Z,98843.89
2019-02-10T13:21:01.578Z,98844.06
2019-02-10T13:23:30.779Z,98840.70
2019-02-10T13:25:59.952Z,98840.70
2019-02-10T13:28:29.123Z,98843.44
2019-02-10T13:30:58.334Z,98843.44
2019-02-10T13:33:27.530Z,98846.02
2019-02-10T13:35:56.692Z,98848.41
2019-02-10T13:38:25.855Z,98847.83
2019-02-10T13:40:55.048Z,98850.53
2019-02-10T13:43:24.234Z,98851.58
2019-02-10T13:45:53.486Z,98853.51
2019-02-10T13:48:22.645Z,98859.88
2019-02-10T13:50:51.824Z,98858.00
2019-02-10T13:53:21.044Z,98857.27
2019-02-10T13:55:50.171Z,98863.92
2019-02-10T13:58:19.379Z,98857.85
2019-02-10T14:00:48.564Z,98869.25
2019-02-10T14:03:17.718Z,98869.61
2019-02-10T14:05:46.911Z,98859.23
2019-02-10T14:08:16.075Z,98867.08
2019-02-10T14:10:45.242Z,98872.70
2019-02-10T14:13:14.417Z,98881.73
2019-02-10T14:15:43.588Z,98879.27
2019-02-10T14:18:12.760Z,98888.89
2019-02-10T14:20:41.957Z,98894.23
2019-02-10T14:23:11.159Z,98893.33
2019-02-10T14:25:40.358Z,98894.56
2019-02-10T14:28:09.533Z,98905.70
2019-02-10T14:30:38.707Z,98910.84
2019-02-10T14:33:07.884Z,98908.32
2019-02-10T14:35:37.073Z,98909.48
2019-02-10T14:38:06.250Z,98909.94
2019-02-10T14:40:35.451Z,98914.87
2019-02-10T14:43:04.637Z,98912.78
2019-02-10T14:45:33.814Z,98919.61
2019-02-10T14:48:03.024Z,98921.84
2019-02-10T14:50:32.207Z,98920.05
2019-02-10T14:53:01.378Z,98925.64
2019-02-10T14:55:30.582Z,98926.63
2019-02-10T14:57:59.786Z,98933.58
2019-02-10T15:00:28.971Z,98930.31
2019-02-10T15:02:58.158Z,98938.27
2019-02-10T15:05:28.344Z,98933.85
2019-02-10T15:07:57.599Z,98937.16
2019-02-10T15:10:26.795Z,98939.63
2019-02-10T15:12:55.949Z,98941.71
2019-02-10T15:15:25.120Z,98944.47
2019-02-10T15:17:55.185Z,98951.25
2019-02-10T15:20:24.404Z,98949.08
2019-02-10T15:22:53.555Z,98951.55
2019-02-10T15:25:22.738Z,98956.87
2019-02-10T15:27:51.937Z,98966.22
2019-02-10T15:30:21.102Z,98966.31
2019-02-10T15:32:50.294Z,98968.90
2019-02-10T15:35:19.496Z,98970.93
2019-02-10T15:37:48.661Z,98974.94
2019-02-10T15:40:17.832Z,98989.70
2019-02-10T15:42:47.013Z,98988.02
2019-02-10T15:45:16.182Z,98988.78
2019-02-10T15:47:45.342Z,98994.86
2019-02-10T15:50:15.220Z,99009.48
2019-02-10T15:52:44.366Z,99014.05
2019-02-10T15:55:14.269Z,99019.00
2019-02-10T15:57:43.452Z,99020.33
2019-02-10T16:00:15.865Z,99032.77
2019-02-10T16:02:45.048Z,99034.28
2019-02-10T16:05:14.253Z,99031.53
2019-02-10T16:07:43.424Z,99047.66
2019-02-10T16:10:12.665Z,99053.64
2019-02-10T16:12:42.782Z,99055.64
2019-02-10T16:15:12.791Z,99063.03
2019-02-10T16:17:41.967Z,99074.80
2019-02-10T16:20:15.132Z,99075.09
2019-02-10T16:22:44.317Z,99086.16
2019-02-10T16:25:13.487Z,99101.54
2019-02-10T16:27:42.696Z,99109.17
2019-02-10T16:30:16.884Z,99106.86
2019-02-10T16:32:49.989Z,99124.91
2019-02-10T16:35:17.034Z,99122.25
2019-02-10T16:37:46.190Z,99126.00
2019-02-10T16:40:18.101Z,99135.77
2019-02-10T16:42:47.301Z,99150.17
2019-02-10T16:45:16.470Z,99155.72
2019-02-10T16:47:45.655Z,99161.75
2019-02-10T16:50:18.270Z,99177.87
2019-02-10T16:52:47.438Z,99176.59
2019-02-10T16:55:18.987Z,99197.65
2019-02-10T16:57:48.246Z,99194.86
2019-02-10T17:00:17.772Z,99194.58
2019-02-10T17:02:46.996Z,99218.75
2019-02-10T17:05:16.172Z,99220.56
2019-02-10T17:07:45.360Z,99224.34
2019-02-10T17:10:16.161Z,99233.63
2019-02-10T17:12:45.340Z,99239.09
2019-02-10T17:15:14.648Z,99254.28
2019-02-10T17:17:43.806Z,99238.72
2019-02-10T17:20:13.826Z,99270.80
2019-02-10T17:22:43.037Z,99285.77
2019-02-10T17:25:29.277Z,99288.27
2019-02-10T17:27:58.447Z,99304.12
2019-02-10T17:30:27.613Z,99307.41
2019-02-10T17:32:56.802Z,99307.74
2019-02-10T17:35:29.053Z,99343.73
2019-02-10T17:37:58.218Z,99323.89
2019-02-10T17:40:33.230Z,99352.54
2019-02-10T17:43:03.163Z,99376.58
2019-02-10T17:45:32.579Z,99375.88
2019-02-10T17:48:07.778Z,99410.58
2019-02-10T17:50:38.755Z,99414.55
2019-02-10T17:53:07.943Z,99432.51
2019-02-10T17:55:37.147Z,99442.33
2019-02-10T17:58:06.316Z,99458.09
2019-02-10T18:00:37.131Z,99469.28
2019-02-10T18:03:06.314Z,99474.82
2019-02-10T18:05:35.487Z,99517.11
2019-02-10T18:08:04.668Z,99502.84
2019-02-10T18:10:33.906Z,99520.31
2019-02-10T18:13:03.063Z,99532.83
2019-02-10T18:15:49.153Z,99551.63
2019-02-10T18:18:31.791Z,99553.22
2019-02-10T18:21:02.620Z,99578.02
2019-02-10T18:23:48.552Z,99581.69
2019-02-10T18:26:25.442Z,99600.77
2019-02-10T18:28:56.265Z,99625.13
2019-02-10T18:31:28.124Z,99623.53
2019-02-10T18:34:11.160Z,99633.27
2019-02-10T18:36:58.014Z,99630.84
2019-02-10T18:39:34.564Z,99626.26
2019-02-10T18:42:20.748Z,99655.09
2019-02-10T18:44:47.176Z,99670.89
2019-02-10T18:47:33.036Z,99672.53
2019-02-10T18:50:09.592Z,99681.50
2019-02-10T18:52:40.401Z,99692.78
2019-02-10T18:55:11.151Z,99705.09
2019-02-10T18:57:53.991Z,99712.64
2019-02-10T19:00:27.648Z,99713.71
2019-02-10T19:03:04.824Z,99732.03
2019-02-10T19:05:35.669Z,99735.31
2019-02-10T19:08:09.185Z,99744.54
2019-02-10T19:10:45.924Z,99758.29
2019-02-10T19:13:19.315Z,99768.14
2019-02-10T19:15:59.115Z,99735.91
2019-02-10T19:18:40.081Z,99779.11
2019-02-10T19:21:27.024Z,99788.17
2019-02-10T19:23:57.845Z,99802.05
2019-02-10T19:26:44.810Z,99819.53
2019-02-10T19:29:21.263Z,99822.88
2019-02-10T19:31:57.783Z,99837.83
2019-02-10T19:34:28.725Z,99839.41
2019-02-10T19:36:59.420Z,99849.91
2019-02-10T19:39:45.527Z,99863.49
2019-02-10T19:42:22.233Z,99870.86
2019-02-10T19:45:09.485Z,99875.19
2019-02-10T19:47:48.864Z,99886.98
2019-02-10T19:50:19.689Z,99906.12
2019-02-10T19:52:56.483Z,99904.06
2019-02-10T19:55:32.926Z,99899.29
2019-02-10T19:58:03.843Z,99908.45
2019-02-10T20:00:34.644Z,99919.14
2019-02-10T20:03:08.258Z,99911.97
2019-02-10T20:05:55.465Z,99943.43
2019-02-10T20:08:37.892Z,99939.13
2019-02-10T20:11:08.705Z,99939.32
2019-02-10T20:13:41.931Z,99954.05
2019-02-10T20:16:15.828Z,99963.70
2019-02-10T20:18:46.643Z,99965.22
2019-02-10T20:21:26.491Z,99973.98
2019-02-10T20:24:00.328Z,99983.02
2019-02-10T20:26:45.978Z,99997.10
2019-02-10T20:29:19.489Z,100010.38
2019-02-10T20:31:50.319Z,100018.09
2019-02-10T20:34:23.927Z,100019.42
2019-02-10T20:36:54.753Z,100029.63
2019-02-10T20:39:25.644Z,100029.25
2019-02-10T20:42:12.205Z,100046.84
2019-02-10T20:44:37.937Z,100046.78
2019-02-10T20:47:11.380Z,100059.66
2019-02-10T20:49:47.779Z,100057.53
2019-02-10T20:52:21.430Z,100068.16
2019-02-10T20:55:07.325Z,100074.73
2019-02-10T20:57:46.889Z,100097.10
2019-02-10T21:00:20.222Z,100106.05
2019-02-10T21:02:51.039Z,100110.77
2019-02-10T21:05:30.648Z,100126.71
2019-02-10T21:08:19.830Z,100121.86
2019-02-10T21:10:59.796Z,100134.18
2019-02-10T21:13:39.374Z,100132.69
2019-02-10T21:16:10.222Z,100146.98
2019-02-10T21:18:43.553Z,100142.42
2019-02-10T21:21:17.224Z,100153.36
2019-02-10T21:23:53.716Z,100166.27
2019-02-10T21:26:36.883Z,100166.13
2019-02-10T21:29:16.669Z,100174.72
2019-02-10T21:31:50.170Z,100180.78
2019-02-10T21:34:30.078Z,100180.20
2019-02-10T21:37:03.882Z,100181.31
2019-02-10T21:39:40.670Z,100190.61
2019-02-10T21:42:11.510Z,100197.63
2019-02-10T21:44:47.992Z,100218.56
2019-02-10T21:47:27.553Z,100216.80
2019-02-10T21:49:56.744Z,100226.20
2019-02-10T21:52:25.919Z,100223.23
2019-02-10T21:54:55.109Z,100225.25
2019-02-10T21:57:24.324Z,100234.20
2019-02-10T21:59:53.502Z,100241.60
2019-02-10T22:02:22.975Z,100235.52
2019-02-10T22:04:52.155Z,100246.16
2019-02-10T22:07:21.343Z,100247.58
2019-02-10T22:09:50.536Z,100249.28
2019-02-10T22:12:19.730Z,100256.34
2019-02-10T22:14:48.913Z,100267.78
2019-02-10T22:17:18.098Z,100275.64
2019-02-10T22:19:47.290Z,100282.73
2019-02-10T22:22:16.474Z,100295.77
2019-02-10T22:24:45.652Z,100299.08
2019-02-10T22:27:14.847Z,100298.91
2019-02-10T22:29:44.037Z,100305.23
2019-02-10T22:32:13.217Z,100302.84
2019-02-10T22:34:42.437Z,100338.37
2019-02-10T22:37:12.101Z,100335.56
2019-02-10T22:39:41.414Z,100341.87
2019-02-10T22:42:10.602Z,100355.86
2019-02-10T22:44:39.807Z,100363.73
2019-02-10T22:47:08.907Z,100374.56
2019-02-10T22:49:38.083Z,100379.13
2019-02-10T22:52:07.285Z,100382.05
2019-02-10T22:54:36.476Z,100389.66
2019-02-10T22:57:05.658Z,100405.91
2019-02-10T22:59:34.871Z,100381.14
2019-02-10T23:02:04.387Z,100410.97
2019-02-10T23:04:33.598Z,100393.52
2019-02-10T23:07:02.876Z,100431.14
2019-02-10T23:09:32.043Z,100436.55
2019-02-10T23:12:01.228Z,100442.39
2019-02-10T23:14:30.496Z,100440.54
2019-02-10T23:16:59.675Z,100442.57
2019-02-10T23:19:28.846Z,100444.28
2019-02-10T23:21:58.071Z,100455.00
2019-02-10T23:24:27.287Z,100464.20
2019-02-10T23:26:56.471Z,100458.18
2019-02-10T23:29:25.661Z,100475.17
2019-02-10T23:31:54.836Z,100439.41
2019-02-10T23:34:24.009Z,100478.68
2019-02-10T23:36:53.212Z,100492.16
2019-02-10T23:39:22.379Z,100493.39
2019-02-10T23:41:51.544Z,100532.83
2019-02-10T23:44:20.750Z,100540.61
2019-02-10T23:46:49.941Z,100538.27
2019-02-10T23:49:19.128Z,100529.48
2019-02-10T23:51:48.364Z,100560.08
2019-02-10T23:54:17.540Z,100562.13
2019-02-10T23:56:47.374Z,100562.47
2019-02-10T23:59:16.590Z,100569.58
